sensor_id;sensor_type;location;lat;lon;timestamp;temperature;humidity
4840;DHT22;2434;48.486;7.964;2023-05-24T00:01:03;15.10;51.10
4840;DHT22;2434;48.486;7.964;2023-05-24T00:03:33;15.10;51.10
4840;DHT22;2434;48.486;7.964;2023-05-24T00:06:07;15.10;51.00
4840;DHT22;2434;48.486;7.964;2023-05-24T00:08:35;15.10;51.00
4840;DHT22;2434;48.486;7.964;2023-05-24T00:11:03;15.00;50.70
4840;DHT22;2434;48.486;7.964;2023-05-24T00:13:32;15.00;51.50
4840;DHT22;2434;48.486;7.964;2023-05-24T00:16:00;15.00;50.70
4840;DHT22;2434;48.486;7.964;2023-05-24T00:18:29;15.00;51.50
4840;DHT22;2434;48.486;7.964;2023-05-24T00:20:57;15.00;51.00
4840;DHT22;2434;48.486;7.964;2023-05-24T00:23:27;15.00;50.50
4840;DHT22;2434;48.486;7.964;2023-05-24T00:25:55;15.00;50.90
4840;DHT22;2434;48.486;7.964;2023-05-24T00:28:24;15.00;51.70
4840;DHT22;2434;48.486;7.964;2023-05-24T00:30:52;15.00;51.20
4840;DHT22;2434;48.486;7.964;2023-05-24T00:33:20;15.00;50.90
4840;DHT22;2434;48.486;7.964;2023-05-24T00:35:49;15.00;51.00
4840;DHT22;2434;48.486;7.964;2023-05-24T00:38:22;15.00;51.20
4840;DHT22;2434;48.486;7.964;2023-05-24T00:40:53;15.00;50.40
4840;DHT22;2434;48.486;7.964;2023-05-24T00:43:23;15.00;51.20
4840;DHT22;2434;48.486;7.964;2023-05-24T00:46:04;14.90;50.50
4840;DHT22;2434;48.486;7.964;2023-05-24T00:48:37;14.90;50.30
4840;DHT22;2434;48.486;7.964;2023-05-24T00:51:06;14.90;50.10
4840;DHT22;2434;48.486;7.964;2023-05-24T00:53:37;14.80;50.20
4840;DHT22;2434;48.486;7.964;2023-05-24T00:56:07;14.80;50.50
4840;DHT22;2434;48.486;7.964;2023-05-24T00:58:36;14.80;50.60
4840;DHT22;2434;48.486;7.964;2023-05-24T01:01:05;14.80;50.90
4840;DHT22;2434;48.486;7.964;2023-05-24T01:03:34;14.80;50.80
4840;DHT22;2434;48.486;7.964;2023-05-24T01:06:05;14.70;50.70
4840;DHT22;2434;48.486;7.964;2023-05-24T01:08:46;14.80;50.40
4840;DHT22;2434;48.486;7.964;2023-05-24T01:11:24;14.70;50.70
4840;DHT22;2434;48.486;7.964;2023-05-24T01:13:59;14.70;51.10
4840;DHT22;2434;48.486;7.964;2023-05-24T01:16:35;14.70;51.50
4840;DHT22;2434;48.486;7.964;2023-05-24T01:19:20;14.80;52.20
4840;DHT22;2434;48.486;7.964;2023-05-24T01:22:00;14.80;52.80
4840;DHT22;2434;48.486;7.964;2023-05-24T01:24:43;14.80;52.40
4840;DHT22;2434;48.486;7.964;2023-05-24T01:27:21;14.90;52.30
4840;DHT22;2434;48.486;7.964;2023-05-24T01:29:51;14.90;52.00
4840;DHT22;2434;48.486;7.964;2023-05-24T01:32:20;14.90;52.10
4840;DHT22;2434;48.486;7.964;2023-05-24T01:34:48;14.80;52.00
4840;DHT22;2434;48.486;7.964;2023-05-24T01:37:17;14.90;52.00
4840;DHT22;2434;48.486;7.964;2023-05-24T01:39:46;14.90;51.90
4840;DHT22;2434;48.486;7.964;2023-05-24T01:42:22;14.90;51.30
4840;DHT22;2434;48.486;7.964;2023-05-24T01:44:57;14.90;50.90
4840;DHT22;2434;48.486;7.964;2023-05-24T01:47:36;14.90;50.80
4840;DHT22;2434;48.486;7.964;2023-05-24T01:50:13;14.80;50.70
4840;DHT22;2434;48.486;7.964;2023-05-24T01:52:43;14.80;50.20
4840;DHT22;2434;48.486;7.964;2023-05-24T01:55:15;14.70;50.30
4840;DHT22;2434;48.486;7.964;2023-05-24T01:57:47;14.70;50.60
4840;DHT22;2434;48.486;7.964;2023-05-24T02:00:18;14.70;50.20
4840;DHT22;2434;48.486;7.964;2023-05-24T02:02:47;14.70;50.10
4840;DHT22;2434;48.486;7.964;2023-05-24T02:05:16;14.70;50.90
4840;DHT22;2434;48.486;7.964;2023-05-24T02:07:45;14.70;51.90
4840;DHT22;2434;48.486;7.964;2023-05-24T02:10:13;14.70;51.50
4840;DHT22;2434;48.486;7.964;2023-05-24T02:12:41;14.70;51.60
4840;DHT22;2434;48.486;7.964;2023-05-24T02:15:11;14.70;53.70
4840;DHT22;2434;48.486;7.964;2023-05-24T02:17:41;14.70;53.40
4840;DHT22;2434;48.486;7.964;2023-05-24T02:20:10;14.70;53.20
4840;DHT22;2434;48.486;7.964;2023-05-24T02:22:40;14.70;53.70
4840;DHT22;2434;48.486;7.964;2023-05-24T02:25:08;14.70;52.90
4840;DHT22;2434;48.486;7.964;2023-05-24T02:27:36;14.60;52.90
4840;DHT22;2434;48.486;7.964;2023-05-24T02:30:06;14.70;53.00
4840;DHT22;2434;48.486;7.964;2023-05-24T02:32:36;14.60;52.80
4840;DHT22;2434;48.486;7.964;2023-05-24T02:35:04;14.60;52.60
4840;DHT22;2434;48.486;7.964;2023-05-24T02:37:34;14.50;52.70
4840;DHT22;2434;48.486;7.964;2023-05-24T02:40:02;14.50;53.20
4840;DHT22;2434;48.486;7.964;2023-05-24T02:42:31;14.50;52.40
4840;DHT22;2434;48.486;7.964;2023-05-24T02:44:59;14.50;52.40
4840;DHT22;2434;48.486;7.964;2023-05-24T02:47:28;14.40;52.60
4840;DHT22;2434;48.486;7.964;2023-05-24T02:49:57;14.40;52.90
4840;DHT22;2434;48.486;7.964;2023-05-24T02:52:26;14.40;53.60
4840;DHT22;2434;48.486;7.964;2023-05-24T02:54:54;14.30;53.70
4840;DHT22;2434;48.486;7.964;2023-05-24T02:57:22;14.30;53.30
4840;DHT22;2434;48.486;7.964;2023-05-24T02:59:50;14.20;53.50
4840;DHT22;2434;48.486;7.964;2023-05-24T03:02:19;14.20;53.80
4840;DHT22;2434;48.486;7.964;2023-05-24T03:04:47;14.10;53.80
4840;DHT22;2434;48.486;7.964;2023-05-24T03:07:17;14.00;54.30
4840;DHT22;2434;48.486;7.964;2023-05-24T03:09:46;14.00;53.50
4840;DHT22;2434;48.486;7.964;2023-05-24T03:12:14;13.90;53.90
4840;DHT22;2434;48.486;7.964;2023-05-24T03:14:43;13.90;54.00
4840;DHT22;2434;48.486;7.964;2023-05-24T03:17:11;13.80;54.10
4840;DHT22;2434;48.486;7.964;2023-05-24T03:19:39;13.80;54.30
4840;DHT22;2434;48.486;7.964;2023-05-24T03:22:08;13.80;54.10
4840;DHT22;2434;48.486;7.964;2023-05-24T03:24:37;13.70;54.20
4840;DHT22;2434;48.486;7.964;2023-05-24T03:27:06;13.70;54.40
4840;DHT22;2434;48.486;7.964;2023-05-24T03:29:35;13.70;54.60
4840;DHT22;2434;48.486;7.964;2023-05-24T03:32:04;13.70;55.10
4840;DHT22;2434;48.486;7.964;2023-05-24T03:34:32;13.70;54.40
4840;DHT22;2434;48.486;7.964;2023-05-24T03:37:01;13.60;54.20
4840;DHT22;2434;48.486;7.964;2023-05-24T03:39:29;13.70;55.50
4840;DHT22;2434;48.486;7.964;2023-05-24T03:42:26;13.60;54.20
4840;DHT22;2434;48.486;7.964;2023-05-24T03:44:55;13.60;54.50
4840;DHT22;2434;48.486;7.964;2023-05-24T03:47:24;13.60;54.50
4840;DHT22;2434;48.486;7.964;2023-05-24T03:49:52;13.60;54.50
4840;DHT22;2434;48.486;7.964;2023-05-24T03:52:21;13.60;55.10
4840;DHT22;2434;48.486;7.964;2023-05-24T03:54:49;13.60;54.70
4840;DHT22;2434;48.486;7.964;2023-05-24T03:57:17;13.60;54.40
4840;DHT22;2434;48.486;7.964;2023-05-24T03:59:47;13.60;54.40
4840;DHT22;2434;48.486;7.964;2023-05-24T04:02:15;13.70;54.90
4840;DHT22;2434;48.486;7.964;2023-05-24T04:04:44;13.70;54.50
4840;DHT22;2434;48.486;7.964;2023-05-24T04:07:12;13.70;55.10
4840;DHT22;2434;48.486;7.964;2023-05-24T04:09:42;13.70;55.10
4840;DHT22;2434;48.486;7.964;2023-05-24T04:12:10;13.70;53.80
4840;DHT22;2434;48.486;7.964;2023-05-24T04:14:40;13.70;54.50
4840;DHT22;2434;48.486;7.964;2023-05-24T04:17:10;13.70;53.80
4840;DHT22;2434;48.486;7.964;2023-05-24T04:19:39;13.60;53.90
4840;DHT22;2434;48.486;7.964;2023-05-24T04:22:08;13.60;54.60
4840;DHT22;2434;48.486;7.964;2023-05-24T04:24:36;13.60;56.20
4840;DHT22;2434;48.486;7.964;2023-05-24T04:27:05;13.70;55.60
4840;DHT22;2434;48.486;7.964;2023-05-24T04:29:33;13.70;56.00
4840;DHT22;2434;48.486;7.964;2023-05-24T04:32:02;13.70;55.70
4840;DHT22;2434;48.486;7.964;2023-05-24T04:34:31;13.70;54.50
4840;DHT22;2434;48.486;7.964;2023-05-24T04:37:02;13.70;54.40
4840;DHT22;2434;48.486;7.964;2023-05-24T04:39:30;13.60;53.70
4840;DHT22;2434;48.486;7.964;2023-05-24T04:41:58;13.60;53.90
4840;DHT22;2434;48.486;7.964;2023-05-24T04:44:26;13.50;54.00
4840;DHT22;2434;48.486;7.964;2023-05-24T04:46:55;13.50;54.20
4840;DHT22;2434;48.486;7.964;2023-05-24T04:49:23;13.50;54.70
4840;DHT22;2434;48.486;7.964;2023-05-24T04:51:53;13.50;54.30
4840;DHT22;2434;48.486;7.964;2023-05-24T04:54:22;13.40;54.80
4840;DHT22;2434;48.486;7.964;2023-05-24T04:56:51;13.40;56.40
4840;DHT22;2434;48.486;7.964;2023-05-24T04:59:19;13.40;55.60
4840;DHT22;2434;48.486;7.964;2023-05-24T05:01:47;13.30;55.10
4840;DHT22;2434;48.486;7.964;2023-05-24T05:04:16;13.30;55.30
4840;DHT22;2434;48.486;7.964;2023-05-24T05:06:45;13.30;55.50
4840;DHT22;2434;48.486;7.964;2023-05-24T05:09:15;13.20;54.80
4840;DHT22;2434;48.486;7.964;2023-05-24T05:11:45;13.30;55.00
4840;DHT22;2434;48.486;7.964;2023-05-24T05:14:14;13.20;55.10
4840;DHT22;2434;48.486;7.964;2023-05-24T05:16:43;13.10;54.90
4840;DHT22;2434;48.486;7.964;2023-05-24T05:19:12;13.10;55.10
4840;DHT22;2434;48.486;7.964;2023-05-24T05:21:40;13.10;55.80
4840;DHT22;2434;48.486;7.964;2023-05-24T05:24:09;13.10;56.00
4840;DHT22;2434;48.486;7.964;2023-05-24T05:26:38;13.10;55.50
4840;DHT22;2434;48.486;7.964;2023-05-24T05:29:07;13.00;55.60
4840;DHT22;2434;48.486;7.964;2023-05-24T05:31:35;13.00;55.50
4840;DHT22;2434;48.486;7.964;2023-05-24T05:34:05;13.10;55.80
4840;DHT22;2434;48.486;7.964;2023-05-24T05:39:07;13.00;55.90
4840;DHT22;2434;48.486;7.964;2023-05-24T05:41:38;13.10;58.20
4840;DHT22;2434;48.486;7.964;2023-05-24T05:44:12;13.10;56.00
4840;DHT22;2434;48.486;7.964;2023-05-24T05:46:40;13.10;55.60
4840;DHT22;2434;48.486;7.964;2023-05-24T05:49:12;13.10;54.70
4840;DHT22;2434;48.486;7.964;2023-05-24T05:51:41;13.00;54.30
4840;DHT22;2434;48.486;7.964;2023-05-24T05:54:10;13.00;54.20
4840;DHT22;2434;48.486;7.964;2023-05-24T05:56:43;13.00;54.60
4840;DHT22;2434;48.486;7.964;2023-05-24T05:59:14;13.00;54.30
4840;DHT22;2434;48.486;7.964;2023-05-24T06:01:43;12.90;55.30
4840;DHT22;2434;48.486;7.964;2023-05-24T06:04:13;12.90;53.90
4840;DHT22;2434;48.486;7.964;2023-05-24T06:06:42;12.90;54.10
4840;DHT22;2434;48.486;7.964;2023-05-24T06:09:11;12.90;54.80
4840;DHT22;2434;48.486;7.964;2023-05-24T06:11:39;12.90;54.70
4840;DHT22;2434;48.486;7.964;2023-05-24T06:14:12;12.90;54.30
4840;DHT22;2434;48.486;7.964;2023-05-24T06:16:45;12.90;54.20
4840;DHT22;2434;48.486;7.964;2023-05-24T06:19:14;12.90;54.50
4840;DHT22;2434;48.486;7.964;2023-05-24T06:21:43;12.80;55.40
4840;DHT22;2434;48.486;7.964;2023-05-24T06:24:14;12.80;55.50
4840;DHT22;2434;48.486;7.964;2023-05-24T06:26:46;12.80;55.20
4840;DHT22;2434;48.486;7.964;2023-05-24T06:29:16;12.80;54.90
4840;DHT22;2434;48.486;7.964;2023-05-24T06:31:46;12.80;55.10
4840;DHT22;2434;48.486;7.964;2023-05-24T06:34:16;12.80;55.30
4840;DHT22;2434;48.486;7.964;2023-05-24T06:36:47;12.90;55.50
4840;DHT22;2434;48.486;7.964;2023-05-24T06:39:17;12.90;55.50
4840;DHT22;2434;48.486;7.964;2023-05-24T06:41:46;12.90;56.20
4840;DHT22;2434;48.486;7.964;2023-05-24T06:44:24;12.90;56.90
4840;DHT22;2434;48.486;7.964;2023-05-24T06:47:00;13.00;54.90
4840;DHT22;2434;48.486;7.964;2023-05-24T06:49:29;13.00;55.60
4840;DHT22;2434;48.486;7.964;2023-05-24T06:51:57;13.00;54.50
4840;DHT22;2434;48.486;7.964;2023-05-24T06:54:25;13.00;54.60
4840;DHT22;2434;48.486;7.964;2023-05-24T06:56:54;13.00;55.00
4840;DHT22;2434;48.486;7.964;2023-05-24T06:59:24;13.00;55.00
4840;DHT22;2434;48.486;7.964;2023-05-24T07:01:53;13.00;54.90
4840;DHT22;2434;48.486;7.964;2023-05-24T07:04:26;12.90;54.90
4840;DHT22;2434;48.486;7.964;2023-05-24T07:06:55;12.90;55.10
4840;DHT22;2434;48.486;7.964;2023-05-24T07:09:24;12.90;56.00
4840;DHT22;2434;48.486;7.964;2023-05-24T07:11:52;12.90;56.00
4840;DHT22;2434;48.486;7.964;2023-05-24T07:14:22;12.90;56.90
4840;DHT22;2434;48.486;7.964;2023-05-24T07:16:53;13.00;55.80
4840;DHT22;2434;48.486;7.964;2023-05-24T07:19:23;13.00;56.30
4840;DHT22;2434;48.486;7.964;2023-05-24T07:21:55;13.00;55.30
4840;DHT22;2434;48.486;7.964;2023-05-24T07:24:24;13.00;55.30
4840;DHT22;2434;48.486;7.964;2023-05-24T07:26:52;13.00;55.70
4840;DHT22;2434;48.486;7.964;2023-05-24T07:29:22;13.00;55.10
4840;DHT22;2434;48.486;7.964;2023-05-24T07:31:53;13.00;55.10
4840;DHT22;2434;48.486;7.964;2023-05-24T07:34:24;12.90;55.20
4840;DHT22;2434;48.486;7.964;2023-05-24T07:36:56;13.00;54.80
4840;DHT22;2434;48.486;7.964;2023-05-24T07:39:27;12.90;54.70
4840;DHT22;2434;48.486;7.964;2023-05-24T07:41:55;12.90;55.20
4840;DHT22;2434;48.486;7.964;2023-05-24T07:44:23;13.00;55.20
4840;DHT22;2434;48.486;7.964;2023-05-24T07:46:54;13.00;55.30
4840;DHT22;2434;48.486;7.964;2023-05-24T07:49:23;13.00;55.40
4840;DHT22;2434;48.486;7.964;2023-05-24T07:51:51;13.00;56.60
4840;DHT22;2434;48.486;7.964;2023-05-24T07:54:22;13.00;56.40
4840;DHT22;2434;48.486;7.964;2023-05-24T07:56:51;13.00;55.70
4840;DHT22;2434;48.486;7.964;2023-05-24T07:59:19;13.00;55.00
4840;DHT22;2434;48.486;7.964;2023-05-24T08:01:48;13.00;55.90
4840;DHT22;2434;48.486;7.964;2023-05-24T08:04:20;13.00;56.80
4840;DHT22;2434;48.486;7.964;2023-05-24T08:06:49;13.00;56.60
4840;DHT22;2434;48.486;7.964;2023-05-24T08:09:18;13.00;55.80
4840;DHT22;2434;48.486;7.964;2023-05-24T08:11:46;13.00;56.00
4840;DHT22;2434;48.486;7.964;2023-05-24T08:14:14;13.00;56.30
4840;DHT22;2434;48.486;7.964;2023-05-24T08:16:43;13.00;56.10
4840;DHT22;2434;48.486;7.964;2023-05-24T08:19:11;13.00;56.20
4840;DHT22;2434;48.486;7.964;2023-05-24T08:21:41;13.00;56.40
4840;DHT22;2434;48.486;7.964;2023-05-24T08:24:09;13.00;56.70
4840;DHT22;2434;48.486;7.964;2023-05-24T08:26:37;13.00;56.60
4840;DHT22;2434;48.486;7.964;2023-05-24T08:29:06;13.00;55.50
4840;DHT22;2434;48.486;7.964;2023-05-24T08:31:34;13.00;56.10
4840;DHT22;2434;48.486;7.964;2023-05-24T08:34:04;13.00;56.90
4840;DHT22;2434;48.486;7.964;2023-05-24T08:36:33;13.00;56.30
4840;DHT22;2434;48.486;7.964;2023-05-24T08:39:02;13.00;56.30
4840;DHT22;2434;48.486;7.964;2023-05-24T08:41:32;13.00;56.70
4840;DHT22;2434;48.486;7.964;2023-05-24T08:44:04;13.10;56.70
4840;DHT22;2434;48.486;7.964;2023-05-24T08:46:34;13.10;56.40
4840;DHT22;2434;48.486;7.964;2023-05-24T08:49:03;13.10;56.20
4840;DHT22;2434;48.486;7.964;2023-05-24T08:51:33;13.10;55.80
4840;DHT22;2434;48.486;7.964;2023-05-24T08:54:06;13.20;57.00
4840;DHT22;2434;48.486;7.964;2023-05-24T08:56:36;13.20;57.00
4840;DHT22;2434;48.486;7.964;2023-05-24T08:59:05;13.30;56.60
4840;DHT22;2434;48.486;7.964;2023-05-24T09:01:37;13.30;55.50
4840;DHT22;2434;48.486;7.964;2023-05-24T09:04:07;13.40;55.20
4840;DHT22;2434;48.486;7.964;2023-05-24T09:06:36;13.30;55.10
4840;DHT22;2434;48.486;7.964;2023-05-24T09:09:08;13.40;54.50
4840;DHT22;2434;48.486;7.964;2023-05-24T09:11:38;13.40;55.60
4840;DHT22;2434;48.486;7.964;2023-05-24T09:14:07;13.40;55.70
4840;DHT22;2434;48.486;7.964;2023-05-24T09:16:35;13.50;55.30
4840;DHT22;2434;48.486;7.964;2023-05-24T09:19:04;13.50;55.00
4840;DHT22;2434;48.486;7.964;2023-05-24T09:21:32;13.60;53.90
4840;DHT22;2434;48.486;7.964;2023-05-24T09:24:01;13.60;54.90
4840;DHT22;2434;48.486;7.964;2023-05-24T09:26:31;13.60;53.60
4840;DHT22;2434;48.486;7.964;2023-05-24T09:28:59;13.70;54.00
4840;DHT22;2434;48.486;7.964;2023-05-24T09:31:31;13.70;53.50
4840;DHT22;2434;48.486;7.964;2023-05-24T09:34:01;13.70;53.20
4840;DHT22;2434;48.486;7.964;2023-05-24T09:36:31;13.80;52.00
4840;DHT22;2434;48.486;7.964;2023-05-24T09:39:06;13.80;53.00
4840;DHT22;2434;48.486;7.964;2023-05-24T09:41:38;13.70;53.70
4840;DHT22;2434;48.486;7.964;2023-05-24T09:44:12;13.70;51.50
4840;DHT22;2434;48.486;7.964;2023-05-24T09:46:41;13.70;52.50
4840;DHT22;2434;48.486;7.964;2023-05-24T09:49:10;13.70;53.70
4840;DHT22;2434;48.486;7.964;2023-05-24T09:51:38;13.80;52.40
4840;DHT22;2434;48.486;7.964;2023-05-24T09:54:07;13.80;52.40
4840;DHT22;2434;48.486;7.964;2023-05-24T09:56:40;13.80;51.90
4840;DHT22;2434;48.486;7.964;2023-05-24T09:59:08;13.90;53.40
4840;DHT22;2434;48.486;7.964;2023-05-24T10:01:37;13.90;51.70
4840;DHT22;2434;48.486;7.964;2023-05-24T10:04:05;13.90;52.40
4840;DHT22;2434;48.486;7.964;2023-05-24T10:06:36;14.00;51.50
4840;DHT22;2434;48.486;7.964;2023-05-24T10:09:05;14.00;52.40
4840;DHT22;2434;48.486;7.964;2023-05-24T10:11:34;14.00;53.50
4840;DHT22;2434;48.486;7.964;2023-05-24T10:14:07;14.10;52.80
4840;DHT22;2434;48.486;7.964;2023-05-24T10:16:36;14.20;51.60
4840;DHT22;2434;48.486;7.964;2023-05-24T10:19:04;14.10;50.60
4840;DHT22;2434;48.486;7.964;2023-05-24T10:21:35;14.20;51.60
4840;DHT22;2434;48.486;7.964;2023-05-24T10:24:08;14.20;53.40
4840;DHT22;2434;48.486;7.964;2023-05-24T10:26:38;14.30;52.90
4840;DHT22;2434;48.486;7.964;2023-05-24T10:29:18;14.30;52.10
4840;DHT22;2434;48.486;7.964;2023-05-24T10:31:49;14.40;53.30
4840;DHT22;2434;48.486;7.964;2023-05-24T10:34:20;14.40;50.80
4840;DHT22;2434;48.486;7.964;2023-05-24T10:36:49;14.40;51.20
4840;DHT22;2434;48.486;7.964;2023-05-24T10:39:20;14.40;49.50
4840;DHT22;2434;48.486;7.964;2023-05-24T10:41:49;14.50;49.80
4840;DHT22;2434;48.486;7.964;2023-05-24T10:44:19;14.50;48.80
4840;DHT22;2434;48.486;7.964;2023-05-24T10:47:07;14.40;50.00
4840;DHT22;2434;48.486;7.964;2023-05-24T10:49:37;14.50;50.10
4840;DHT22;2434;48.486;7.964;2023-05-24T10:52:09;14.50;50.10
4840;DHT22;2434;48.486;7.964;2023-05-24T10:54:38;14.50;49.20
4840;DHT22;2434;48.486;7.964;2023-05-24T10:57:22;14.50;49.30
4840;DHT22;2434;48.486;7.964;2023-05-24T10:59:55;14.50;48.00
4840;DHT22;2434;48.486;7.964;2023-05-24T11:02:26;14.50;48.00
4840;DHT22;2434;48.486;7.964;2023-05-24T11:05:04;14.40;47.10
4840;DHT22;2434;48.486;7.964;2023-05-24T11:07:40;14.40;48.20
4840;DHT22;2434;48.486;7.964;2023-05-24T11:10:10;14.40;49.00
4840;DHT22;2434;48.486;7.964;2023-05-24T11:12:41;14.40;49.80
4840;DHT22;2434;48.486;7.964;2023-05-24T11:15:12;14.40;49.60
4840;DHT22;2434;48.486;7.964;2023-05-24T11:18:12;14.50;50.70
4840;DHT22;2434;48.486;7.964;2023-05-24T11:20:41;14.50;49.60
4840;DHT22;2434;48.486;7.964;2023-05-24T11:23:10;14.50;49.00
4840;DHT22;2434;48.486;7.964;2023-05-24T11:25:39;14.60;48.60
4840;DHT22;2434;48.486;7.964;2023-05-24T11:28:08;14.60;52.70
4840;DHT22;2434;48.486;7.964;2023-05-24T11:30:40;14.80;53.30
4840;DHT22;2434;48.486;7.964;2023-05-24T11:33:15;14.90;52.50
4840;DHT22;2434;48.486;7.964;2023-05-24T11:35:45;15.00;48.80
4840;DHT22;2434;48.486;7.964;2023-05-24T11:38:14;15.00;47.90
4840;DHT22;2434;48.486;7.964;2023-05-24T11:40:43;15.20;49.70
4840;DHT22;2434;48.486;7.964;2023-05-24T11:43:12;15.30;45.90
4840;DHT22;2434;48.486;7.964;2023-05-24T11:45:47;15.30;43.00
4840;DHT22;2434;48.486;7.964;2023-05-24T11:48:18;15.40;42.90
4840;DHT22;2434;48.486;7.964;2023-05-24T11:50:47;15.40;42.70
4840;DHT22;2434;48.486;7.964;2023-05-24T11:53:18;15.50;42.50
4840;DHT22;2434;48.486;7.964;2023-05-24T11:55:47;15.50;43.10
4840;DHT22;2434;48.486;7.964;2023-05-24T11:58:21;15.50;43.10
4840;DHT22;2434;48.486;7.964;2023-05-24T12:00:51;15.60;43.60
4840;DHT22;2434;48.486;7.964;2023-05-24T12:03:20;15.60;42.50
4840;DHT22;2434;48.486;7.964;2023-05-24T12:05:49;15.70;41.60
4840;DHT22;2434;48.486;7.964;2023-05-24T12:08:18;15.80;40.20
4840;DHT22;2434;48.486;7.964;2023-05-24T12:10:47;15.90;40.30
4840;DHT22;2434;48.486;7.964;2023-05-24T12:13:19;15.90;39.40
4840;DHT22;2434;48.486;7.964;2023-05-24T12:15:51;15.90;42.20
4840;DHT22;2434;48.486;7.964;2023-05-24T12:18:23;16.00;40.50
4840;DHT22;2434;48.486;7.964;2023-05-24T12:20:52;16.10;41.00
4840;DHT22;2434;48.486;7.964;2023-05-24T12:23:23;16.10;40.00
4840;DHT22;2434;48.486;7.964;2023-05-24T12:25:56;16.10;38.90
4840;DHT22;2434;48.486;7.964;2023-05-24T12:28:25;16.40;40.80
4840;DHT22;2434;48.486;7.964;2023-05-24T12:30:56;16.40;36.00
4840;DHT22;2434;48.486;7.964;2023-05-24T12:33:25;16.40;36.80
4840;DHT22;2434;48.486;7.964;2023-05-24T12:35:53;16.50;37.30
4840;DHT22;2434;48.486;7.964;2023-05-24T12:38:23;16.50;36.70
4840;DHT22;2434;48.486;7.964;2023-05-24T12:40:53;16.50;34.70
4840;DHT22;2434;48.486;7.964;2023-05-24T12:43:38;16.50;35.30
4840;DHT22;2434;48.486;7.964;2023-05-24T12:46:08;16.60;36.20
4840;DHT22;2434;48.486;7.964;2023-05-24T12:48:37;16.60;34.80
4840;DHT22;2434;48.486;7.964;2023-05-24T12:51:05;16.50;34.30
4840;DHT22;2434;48.486;7.964;2023-05-24T12:53:34;16.50;32.80
4840;DHT22;2434;48.486;7.964;2023-05-24T12:56:03;16.50;31.50
4840;DHT22;2434;48.486;7.964;2023-05-24T12:58:31;16.50;30.90
4840;DHT22;2434;48.486;7.964;2023-05-24T13:00:59;16.50;35.50
4840;DHT22;2434;48.486;7.964;2023-05-24T13:03:29;16.70;35.00
4840;DHT22;2434;48.486;7.964;2023-05-24T13:05:57;16.80;30.10
4840;DHT22;2434;48.486;7.964;2023-05-24T13:08:26;16.90;30.40
4840;DHT22;2434;48.486;7.964;2023-05-24T13:10:55;16.90;32.10
4840;DHT22;2434;48.486;7.964;2023-05-24T13:13:24;17.00;30.40
4840;DHT22;2434;48.486;7.964;2023-05-24T13:15:52;17.00;31.70
4840;DHT22;2434;48.486;7.964;2023-05-24T13:18:20;17.10;30.20
4840;DHT22;2434;48.486;7.964;2023-05-24T13:20:51;17.10;28.50
4840;DHT22;2434;48.486;7.964;2023-05-24T13:23:19;17.10;29.80
4840;DHT22;2434;48.486;7.964;2023-05-24T13:25:47;17.20;29.00
4840;DHT22;2434;48.486;7.964;2023-05-24T13:28:16;17.10;28.20
4840;DHT22;2434;48.486;7.964;2023-05-24T13:30:45;17.10;28.30
4840;DHT22;2434;48.486;7.964;2023-05-24T13:33:14;17.10;28.30
4840;DHT22;2434;48.486;7.964;2023-05-24T13:35:43;17.20;29.50
4840;DHT22;2434;48.486;7.964;2023-05-24T13:38:13;17.10;29.90
4840;DHT22;2434;48.486;7.964;2023-05-24T13:40:41;17.10;29.40
4840;DHT22;2434;48.486;7.964;2023-05-24T13:43:10;17.20;29.50
4840;DHT22;2434;48.486;7.964;2023-05-24T13:45:38;17.20;28.70
4840;DHT22;2434;48.486;7.964;2023-05-24T13:48:07;17.20;29.20
4840;DHT22;2434;48.486;7.964;2023-05-24T13:50:36;17.30;27.50
4840;DHT22;2434;48.486;7.964;2023-05-24T13:53:05;17.20;28.00
4840;DHT22;2434;48.486;7.964;2023-05-24T13:55:35;17.30;27.50
4840;DHT22;2434;48.486;7.964;2023-05-24T13:58:04;17.30;27.50
4840;DHT22;2434;48.486;7.964;2023-05-24T14:00:33;17.30;27.40
4840;DHT22;2434;48.486;7.964;2023-05-24T14:03:02;17.30;26.70
4840;DHT22;2434;48.486;7.964;2023-05-24T14:05:31;17.30;26.70
4840;DHT22;2434;48.486;7.964;2023-05-24T14:08:00;17.40;26.10
4840;DHT22;2434;48.486;7.964;2023-05-24T14:10:33;17.40;26.60
4840;DHT22;2434;48.486;7.964;2023-05-24T14:13:04;17.40;26.20
4840;DHT22;2434;48.486;7.964;2023-05-24T14:15:35;17.40;28.20
4840;DHT22;2434;48.486;7.964;2023-05-24T14:18:04;17.40;26.20
4840;DHT22;2434;48.486;7.964;2023-05-24T14:20:35;17.40;27.80
4840;DHT22;2434;48.486;7.964;2023-05-24T14:23:05;17.40;27.30
4840;DHT22;2434;48.486;7.964;2023-05-24T14:25:34;17.50;28.40
4840;DHT22;2434;48.486;7.964;2023-05-24T14:28:04;17.50;26.00
4840;DHT22;2434;48.486;7.964;2023-05-24T14:30:34;17.50;27.40
4840;DHT22;2434;48.486;7.964;2023-05-24T14:33:04;17.50;25.90
4840;DHT22;2434;48.486;7.964;2023-05-24T14:35:34;17.50;25.30
4840;DHT22;2434;48.486;7.964;2023-05-24T14:38:06;17.60;25.00
4840;DHT22;2434;48.486;7.964;2023-05-24T14:40:36;17.50;26.00
4840;DHT22;2434;48.486;7.964;2023-05-24T14:43:08;17.50;26.20
4840;DHT22;2434;48.486;7.964;2023-05-24T14:45:37;17.50;26.60
4840;DHT22;2434;48.486;7.964;2023-05-24T14:48:08;17.60;25.30
4840;DHT22;2434;48.486;7.964;2023-05-24T14:50:39;17.50;25.80
4840;DHT22;2434;48.486;7.964;2023-05-24T14:53:07;17.50;24.70
4840;DHT22;2434;48.486;7.964;2023-05-24T14:55:39;17.50;24.30
4840;DHT22;2434;48.486;7.964;2023-05-24T14:58:11;17.50;24.30
4840;DHT22;2434;48.486;7.964;2023-05-24T15:00:40;17.50;22.80
4840;DHT22;2434;48.486;7.964;2023-05-24T15:03:10;17.50;24.00
4840;DHT22;2434;48.486;7.964;2023-05-24T15:05:40;17.50;23.30
4840;DHT22;2434;48.486;7.964;2023-05-24T15:08:09;17.50;25.60
4840;DHT22;2434;48.486;7.964;2023-05-24T15:10:38;17.50;24.30
4840;DHT22;2434;48.486;7.964;2023-05-24T15:13:07;17.60;26.50
4840;DHT22;2434;48.486;7.964;2023-05-24T15:15:36;17.60;24.80
4840;DHT22;2434;48.486;7.964;2023-05-24T15:18:05;17.60;26.00
4840;DHT22;2434;48.486;7.964;2023-05-24T15:20:34;17.60;25.00
4840;DHT22;2434;48.486;7.964;2023-05-24T15:23:02;17.60;24.80
4840;DHT22;2434;48.486;7.964;2023-05-24T15:25:31;17.70;26.40
4840;DHT22;2434;48.486;7.964;2023-05-24T15:28:00;17.70;25.70
4840;DHT22;2434;48.486;7.964;2023-05-24T15:30:29;17.70;25.70
4840;DHT22;2434;48.486;7.964;2023-05-24T15:32:58;17.70;25.90
4840;DHT22;2434;48.486;7.964;2023-05-24T15:35:27;17.70;25.80
4840;DHT22;2434;48.486;7.964;2023-05-24T15:37:55;17.70;24.70
4840;DHT22;2434;48.486;7.964;2023-05-24T15:40:23;17.60;24.20
4840;DHT22;2434;48.486;7.964;2023-05-24T15:42:52;17.60;23.70
4840;DHT22;2434;48.486;7.964;2023-05-24T15:45:20;17.60;24.00
4840;DHT22;2434;48.486;7.964;2023-05-24T15:47:49;17.50;23.40
4840;DHT22;2434;48.486;7.964;2023-05-24T15:50:19;17.50;24.30
4840;DHT22;2434;48.486;7.964;2023-05-24T15:53:07;17.50;24.20
4840;DHT22;2434;48.486;7.964;2023-05-24T15:55:35;17.60;24.80
4840;DHT22;2434;48.486;7.964;2023-05-24T15:58:04;17.50;24.80
4840;DHT22;2434;48.486;7.964;2023-05-24T16:00:33;17.60;23.90
4840;DHT22;2434;48.486;7.964;2023-05-24T16:03:01;17.50;25.10
4840;DHT22;2434;48.486;7.964;2023-05-24T16:05:31;17.50;25.90
4840;DHT22;2434;48.486;7.964;2023-05-24T16:07:59;17.60;25.70
4840;DHT22;2434;48.486;7.964;2023-05-24T16:10:28;17.60;26.60
4840;DHT22;2434;48.486;7.964;2023-05-24T16:12:56;17.60;25.10
4840;DHT22;2434;48.486;7.964;2023-05-24T16:15:26;17.60;25.30
4840;DHT22;2434;48.486;7.964;2023-05-24T16:17:55;17.70;25.10
4840;DHT22;2434;48.486;7.964;2023-05-24T16:20:24;17.70;25.30
4840;DHT22;2434;48.486;7.964;2023-05-24T16:22:54;17.70;25.90